Meteo Pančevo - METAR stanice u blizini


METAR stanice u blizini

 

LYBE - Beograd / Surčin, Srbija
Ažurirano: 15/08/2018 16:00
Partly Cloudy
Partly Cloudy
 Pravac vetra SZ
Vetar: SZ 13 km/h, Maks.: 31 km/h
Temperatura: 29°C
Heat Index: 29°C
Tačka rose: 17°C
Vlažnost: 48%
Pritisak: 1014 hPa
Oblaci: Partly Cloudy
Vidljivost: 10 km
Cloud details: Partly Cloudy 1219 m
2018/08/15 14:00 LYBE 151400Z 31007G17KT 9999 SCT040 29/17 Q1014 NOSIG
LYBT - Beograd / Batajnica, Srbija
Ažurirano: 15/08/2018 16:00
Few Clouds
Few Clouds
 Pravac vetra varies
Vetar: varies 9 km/h
Temperatura: 29°C
Heat Index: 29°C
Tačka rose: 18°C
Vlažnost: 51%
Pritisak: 1014 hPa
Oblaci: Few Clouds
Vidljivost: 10 km
Cloud details: Few Clouds 1219 m
2018/08/15 14:00 LYBT 151400Z VRB05KT 9999 FEW040 29/18 Q1014 NOSIG
LYVR - Vršac, Srbija
Ažurirano: 15/08/2018 16:00
Partly Cloudy
Partly Cloudy
 Pravac vetra varies
Vetar: varies 7 km/h
Temperatura: 30°C
Heat Index: 29°C
Tačka rose: 15°C
Vlažnost: 40%
Pritisak: 1014 hPa
Oblaci: Partly Cloudy
Vidljivost: 10 km
Cloud details: Partly Cloudy 1006 m
2018/08/15 14:00 LYVR 151400Z VRB04KT 9999 SCT033 30/15 Q1014 NOSIG
 
LYKV - Lađevci, Srbija
Ažurirano: 15/08/2018 16:00
Few Clouds
Few Clouds
 Pravac vetra varies
Vetar: varies 4 km/h
Temperatura: 26°C
Tačka rose: 18°C
Vlažnost: 61%
Pritisak: 1015 hPa
Oblaci: Few Clouds
Vidljivost: 10 km
Cloud details: Few Clouds 1219 m
2018/08/15 14:00 LYKV 151400Z VRB02KT 9999 FEW040 26/18 Q1015 NOSIG
LYNI - Niš, Srbija
Ažurirano: 15/08/2018 16:00
Few Clouds
Few Clouds
 Pravac vetra SZ
Vetar: SZ 28 km/h
Temperatura: 28°C
Heat Index: 29°C
Tačka rose: 18°C
Vlažnost: 55%
Pritisak: 1013 hPa
Oblaci: Few Clouds
Vidljivost: 10 km
Cloud details: Few Clouds 1219 m
2018/08/15 14:00 LYNI 151400Z 32015KT 9999 FEW040 28/18 Q1013 NOSIG
BKPR - Priština, Srbija
Ažurirano: 15/08/2018 16:00
Partly Cloudy
Partly Cloudy
 Pravac vetra SSI
Vetar: SSI 26 km/h
Temperatura: 28°C
Heat Index: 28°C
Tačka rose: 15°C
Vlažnost: 45%
Pritisak: 1014 hPa
Oblaci: Partly Cloudy
Vidljivost: 10 km
Cloud details: Few Clouds 914 m
Partly Cloudy 1219 m
2018/08/15 14:00 BKPR 151400Z 02014KT 9999 FEW030CB SCT040 28/15 Q1014 BECMG TS
 
LHPP - Pecs / Pogany, Hungary
Ažurirano: 15/08/2018 15:45
Mostly Cloudy
Mostly Cloudy
 Pravac vetra S
Vetar: S 15 km/h
Temperatura: 27°C
Heat Index: 27°C
Tačka rose: 15°C
Vlažnost: 48%
Pritisak: 1017 hPa
Oblaci: Mostly Cloudy
Vidljivost: 10 km
Cloud details: Few Clouds 1402 m
Mostly Cloudy 6096 m
2018/08/15 13:45 LHPP 151345Z 01008KT 9999 FEW046 BKN200 27/15 Q1017
LHUD - Szeged, Hungary
Ažurirano: 15/08/2018 15:45
Vedro
Vedro
 Pravac vetra Z
Vetar: Z 9 km/h
Temperatura: 30°C
Heat Index: 31°C
Tačka rose: 18°C
Vlažnost: 49%
Pritisak: 1014 hPa
Pregled: Vedro
Vidljivost: greater than 10 km
2018/08/15 13:45 LHUD 151345Z 27005KT CAVOK 30/18 Q1014
LRTR - Timisoara, Romania
Ažurirano: 15/08/2018 16:00
Few Clouds
Few Clouds
 Pravac vetra ZSZ
Vetar: ZSZ 11 km/h
Temperatura: 29°C
Heat Index: 29°C
Tačka rose: 17°C
Vlažnost: 48%
Pritisak: 1014 hPa
Oblaci: Few Clouds
Vidljivost: 10 km
Cloud details: Few Clouds 1433 m
2018/08/15 14:00 LRTR 151400Z 30006KT 270V340 9999 FEW047 29/17 Q1014 NOSIG
 
LRCV - Craiova, Romania
Ažurirano: 15/08/2018 16:00
Vedro
Vedro
 Pravac vetra I
Vetar: I 13 km/h
Temperatura: 30°C
Tačka rose: 10°C
Vlažnost: 29%
Pritisak: 1013 hPa
Pregled: Vedro
Vidljivost: greater than 10 km
2018/08/15 14:00 LRCV 151400Z 09007KT 060V130 CAVOK 30/10 Q1013
LBSF - Sofia, Bulgaria
Ažurirano: 15/08/2018 16:00
Partly Cloudy
Partly Cloudy
 Pravac vetra I
Vetar: I 15 km/h
Temperatura: 28°C
Heat Index: 28°C
Tačka rose: 14°C
Vlažnost: 42%
Pritisak: 1014 hPa
Oblaci: Partly Cloudy
Vidljivost: 10 km
Cloud details: Partly Cloudy 1981 m
2018/08/15 14:00 LBSF 151400Z 09008KT 040V120 9999 SCT065 28/14 Q1014 NOSIG
LWSK - Skoplje, Makedonija
Ažurirano: 15/08/2018 16:00
Few Clouds
Few Clouds
 Pravac vetra S
Vetar: S 19 km/h, Maks.: 39 km/h
Temperatura: 31°C
Tačka rose: 13°C
Vlažnost: 33%
Pritisak: 1012 hPa
Oblaci: Few Clouds
Vidljivost: 10 km
Cloud details: Few Clouds 1524 m
2018/08/15 14:00 LWSK 151400Z 36010G21KT 350V050 9999 FEW050CB 31/13 Q1012 NOSIG
 
LYPG - Podgorica, Crna Gora
Ažurirano: 15/08/2018 16:00
Few Clouds
Few Clouds
 Pravac vetra S
Vetar: S 26 km/h
Temperatura: 33°C
Tačka rose: 13°C
Vlažnost: 30%
Pritisak: 1009 hPa
Oblaci: Few Clouds
Vidljivost: 10 km
Cloud details: Few Clouds 1006 m
Few Clouds 1219 m
2018/08/15 14:00 LYPG 151400Z 36014KT 9999 FEW033TCU FEW040 33/13 Q1009 NOSIG
LQSA - Sarajevo, Bosna i Hercegovina
Ažurirano: 15/08/2018 16:00
Slaba kiša, Delimično oblačno
Slaba kiša, Delimično oblačno
 Pravac vetra ZSZ
Vetar: ZSZ 17 km/h
Temperatura: 23°C
Tačka rose: 17°C
Vlažnost: 69%
Pritisak: 1016 hPa
Pregled: Light Rain
Oblaci: Partly Cloudy
Vidljivost: 10 km
Cloud details: Few Clouds 1067 m
Partly Cloudy 1524 m
2018/08/15 14:00 LQSA 151400Z 30009KT 270V330 9999 -RA FEW035TCU SCT050 23/17 Q1016 TEMPO TSRA
LDOS - Osijek, Hrvatksa
Ažurirano: 15/08/2018 16:00
Few Clouds
Few Clouds
 Pravac vetra SSI
Vetar: SSI 15 km/h
Temperatura: 29°C
Heat Index: 29°C
Tačka rose: 15°C
Vlažnost: 43%
Pritisak: 1015 hPa
Oblaci: Few Clouds
Vidljivost: 10 km
Cloud details: Few Clouds 1433 m
2018/08/15 14:00 LDOS 151400Z 03008KT 350V060 9999 FEW047 29/15 Q1015